createdAt,value
2019-06-20T00:01:47.959Z,10.08
2019-06-20T00:04:19.151Z,13.90
2019-06-20T00:06:50.263Z,19.35
2019-06-20T00:09:21.872Z,10.82
2019-06-20T00:11:54.099Z,10.80
2019-06-20T00:14:25.311Z,10.78
2019-06-20T00:16:59.427Z,9.00
2019-06-20T00:19:29.398Z,9.15
2019-06-20T00:22:00.314Z,9.43
2019-06-20T00:24:31.586Z,9.48
2019-06-20T00:27:02.506Z,9.03
2019-06-20T00:29:33.567Z,9.18
2019-06-20T00:32:04.667Z,9.60
2019-06-20T00:34:35.741Z,9.48
2019-06-20T00:37:06.690Z,8.85
2019-06-20T00:39:37.696Z,9.20
2019-06-20T00:42:08.784Z,9.30
2019-06-20T00:44:39.598Z,8.68
2019-06-20T00:47:10.673Z,9.15
2019-06-20T00:49:42.159Z,8.95
2019-06-20T00:52:13.092Z,8.20
2019-06-20T00:54:44.088Z,8.60
2019-06-20T00:57:15.047Z,9.08
2019-06-20T00:59:46.029Z,9.45
2019-06-20T01:02:17.130Z,8.40
2019-06-20T01:04:48.378Z,8.50
2019-06-20T01:07:19.649Z,7.85
2019-06-20T01:09:50.559Z,9.10
2019-06-20T01:12:21.803Z,9.73
2019-06-20T01:14:53.039Z,7.92
2019-06-20T01:17:24.323Z,9.20
2019-06-20T01:19:58.282Z,8.98
2019-06-20T01:22:28.225Z,6.55
2019-06-20T01:24:59.223Z,7.20
2019-06-20T01:27:30.416Z,7.05
2019-06-20T01:30:01.468Z,6.90
2019-06-20T01:32:32.595Z,7.37
2019-06-20T01:35:05.142Z,7.20
2019-06-20T01:37:36.185Z,9.23
2019-06-20T01:40:08.471Z,7.65
2019-06-20T01:42:41.284Z,7.20
2019-06-20T01:45:12.530Z,7.08
2019-06-20T01:47:43.606Z,6.70
2019-06-20T01:50:15.568Z,8.03
2019-06-20T01:52:46.513Z,9.30
2019-06-20T01:55:17.697Z,10.50
2019-06-20T01:57:48.668Z,11.22
2019-06-20T02:00:44.750Z,9.00
2019-06-20T02:03:16.977Z,10.35
2019-06-20T02:05:48.263Z,10.05
2019-06-20T02:08:19.479Z,11.12
2019-06-20T02:10:50.614Z,10.32
2019-06-20T02:13:21.647Z,11.05
2019-06-20T02:15:52.653Z,8.88
2019-06-20T02:18:23.623Z,11.08
2019-06-20T02:20:58.134Z,8.90
2019-06-20T02:23:29.237Z,9.15
2019-06-20T02:26:00.292Z,10.53
2019-06-20T02:28:32.908Z,9.15
2019-06-20T02:31:04.224Z,8.50
2019-06-20T02:33:35.151Z,9.25
2019-06-20T02:36:06.336Z,7.92
2019-06-20T02:38:37.309Z,7.67
2019-06-20T02:41:08.687Z,7.83
2019-06-20T02:43:39.648Z,6.92
2019-06-20T02:46:11.058Z,9.80
2019-06-20T02:48:42.133Z,9.35
2019-06-20T02:51:13.380Z,8.88
2019-06-20T02:53:44.586Z,9.05
2019-06-20T02:56:15.521Z,11.60
2019-06-20T02:58:46.510Z,9.75
2019-06-20T03:01:17.492Z,9.28
2019-06-20T03:03:48.470Z,10.08
2019-06-20T03:06:19.858Z,11.00
2019-06-20T03:08:50.927Z,11.48
2019-06-20T03:11:21.963Z,11.25
2019-06-20T03:13:52.882Z,10.63
2019-06-20T03:16:24.095Z,11.35
2019-06-20T03:18:54.911Z,11.40
2019-06-20T03:21:25.850Z,10.60
2019-06-20T03:23:57.020Z,11.68
2019-06-20T03:26:28.016Z,12.45
2019-06-20T03:28:59.064Z,11.35
2019-06-20T03:31:30.430Z,9.75
2019-06-20T03:34:02.884Z,10.80
2019-06-20T03:36:34.432Z,11.55
2019-06-20T03:39:07.684Z,11.12
2019-06-20T03:41:38.590Z,11.40
2019-06-20T03:44:09.856Z,12.05
2019-06-20T03:46:40.963Z,12.65
2019-06-20T03:49:11.967Z,12.30
2019-06-20T03:51:43.243Z,13.05
2019-06-20T03:54:14.288Z,13.00
2019-06-20T03:56:45.230Z,11.63
2019-06-20T03:59:16.062Z,12.70
2019-06-20T04:01:49.201Z,11.80
2019-06-20T04:04:19.720Z,12.37
2019-06-20T04:06:50.804Z,13.15
2019-06-20T04:09:21.690Z,11.85
2019-06-20T04:11:52.664Z,12.25
2019-06-20T04:14:23.825Z,11.20
2019-06-20T04:16:54.928Z,11.90
2019-06-20T04:19:26.724Z,10.95
2019-06-20T04:21:57.741Z,11.12
2019-06-20T04:24:29.083Z,11.63
2019-06-20T04:27:00.187Z,10.32
2019-06-20T04:29:31.216Z,9.93
2019-06-20T04:32:02.268Z,10.60
2019-06-20T04:34:33.281Z,10.72
2019-06-20T04:37:04.212Z,10.13
2019-06-20T04:39:35.182Z,11.20
2019-06-20T04:42:06.352Z,11.15
2019-06-20T04:44:37.634Z,10.75
2019-06-20T04:47:12.945Z,11.20
2019-06-20T04:49:44.076Z,10.75
2019-06-20T04:52:15.129Z,10.25
2019-06-20T04:54:45.082Z,10.82
2019-06-20T04:57:16.374Z,10.43
2019-06-20T04:59:48.836Z,10.40
2019-06-20T05:02:21.482Z,11.03
2019-06-20T05:04:52.465Z,10.48
2019-06-20T05:07:23.906Z,10.70
2019-06-20T05:09:54.882Z,10.30
2019-06-20T05:12:26.004Z,10.95
2019-06-20T05:14:56.899Z,10.98
2019-06-20T05:17:28.072Z,10.82
2019-06-20T05:19:59.044Z,9.88
2019-06-20T05:22:30.107Z,9.68
2019-06-20T05:25:01.288Z,10.90
2019-06-20T05:27:32.249Z,11.70
2019-06-20T05:30:04.789Z,11.12
2019-06-20T05:32:35.746Z,10.23
2019-06-20T05:35:07.515Z,10.38
2019-06-20T05:37:38.597Z,10.40
2019-06-20T05:40:10.919Z,9.75
2019-06-20T05:42:42.106Z,10.28
2019-06-20T05:45:14.313Z,9.65
2019-06-20T05:47:45.348Z,9.25
2019-06-20T05:50:16.678Z,9.33
2019-06-20T05:52:47.569Z,9.70
2019-06-20T05:55:19.057Z,8.45
2019-06-20T05:57:49.933Z,10.28
2019-06-20T06:00:22.436Z,8.53
2019-06-20T06:02:53.572Z,8.55
2019-06-20T06:05:24.766Z,9.40
2019-06-20T06:07:55.783Z,9.25
2019-06-20T06:10:26.808Z,8.30
2019-06-20T06:12:57.756Z,9.23
2019-06-20T06:15:28.713Z,9.58
2019-06-20T06:17:59.736Z,9.13
2019-06-20T06:20:30.584Z,8.53
2019-06-20T06:23:01.612Z,8.98
2019-06-20T06:25:32.635Z,9.33
2019-06-20T06:28:03.700Z,8.63
2019-06-20T06:30:34.977Z,8.53
2019-06-20T06:33:06.077Z,9.00
2019-06-20T06:35:37.301Z,9.40
2019-06-20T06:38:08.588Z,8.90
2019-06-20T06:40:39.668Z,9.33
2019-06-20T06:43:10.837Z,8.15
2019-06-20T06:45:42.234Z,8.05
2019-06-20T06:48:13.738Z,8.48
2019-06-20T06:50:44.755Z,8.23
2019-06-20T06:53:15.734Z,8.30
2019-06-20T06:55:47.978Z,7.70
2019-06-20T06:58:19.215Z,7.22
2019-06-20T07:00:50.473Z,8.05
2019-06-20T07:03:21.516Z,8.45
2019-06-20T07:05:52.612Z,7.58
2019-06-20T07:08:23.977Z,7.65
2019-06-20T07:10:55.046Z,7.97
2019-06-20T07:13:26.186Z,7.35
2019-06-20T07:15:57.260Z,7.47
2019-06-20T07:18:28.607Z,7.50
2019-06-20T07:20:59.609Z,7.12
2019-06-20T07:23:30.594Z,7.05
2019-06-20T07:26:01.577Z,7.22
2019-06-20T07:28:33.037Z,7.03
2019-06-20T07:31:04.777Z,6.50
2019-06-20T07:33:35.802Z,7.03
2019-06-20T07:36:07.532Z,7.03
2019-06-20T07:38:38.520Z,7.20
2019-06-20T07:41:09.870Z,6.70
2019-06-20T07:43:40.939Z,6.42
2019-06-20T07:46:11.948Z,6.55
2019-06-20T07:48:43.356Z,6.80
2019-06-20T07:51:14.256Z,9.35
2019-06-20T07:53:46.014Z,6.28
2019-06-20T07:56:17.013Z,6.95
2019-06-20T07:58:50.029Z,12.58
2019-06-20T08:01:21.073Z,9.08
2019-06-20T08:03:52.528Z,6.15
2019-06-20T08:06:23.464Z,7.70
2019-06-20T08:08:54.720Z,6.53
2019-06-20T08:11:26.222Z,11.50
2019-06-20T08:13:57.443Z,6.78
2019-06-20T08:16:28.442Z,6.03
2019-06-20T08:18:59.346Z,6.30
2019-06-20T08:21:30.408Z,8.20
2019-06-20T08:24:01.572Z,8.05
2019-06-20T08:26:32.512Z,6.97
2019-06-20T08:29:16.683Z,7.12
2019-06-20T08:31:36.720Z,6.97
2019-06-20T08:34:09.194Z,7.05
2019-06-20T08:36:40.151Z,6.95
2019-06-20T08:39:11.675Z,8.20
2019-06-20T08:41:42.853Z,8.08
2019-06-20T08:44:13.765Z,7.22
2019-06-20T08:46:45.013Z,7.67
2019-06-20T08:49:16.072Z,7.87
2019-06-20T08:51:47.713Z,8.45
2019-06-20T08:54:18.767Z,12.13
2019-06-20T08:56:51.594Z,7.45
2019-06-20T08:59:24.626Z,8.73
2019-06-20T09:01:58.038Z,8.15
2019-06-20T09:04:28.140Z,7.80
2019-06-20T09:07:00.560Z,8.45
2019-06-20T09:09:31.808Z,7.37
2019-06-20T09:12:05.158Z,7.45
2019-06-20T09:14:36.590Z,7.47
2019-06-20T09:17:07.747Z,7.25
2019-06-20T09:19:38.742Z,8.23
2019-06-20T09:22:09.994Z,8.15
2019-06-20T09:24:40.976Z,6.67
2019-06-20T09:27:11.880Z,7.60
2019-06-20T09:29:43.063Z,7.50
2019-06-20T09:32:14.119Z,6.65
2019-06-20T09:34:45.142Z,7.00
2019-06-20T09:37:16.194Z,7.20
2019-06-20T09:39:47.512Z,8.13
2019-06-20T09:42:19.383Z,9.00
2019-06-20T09:44:51.492Z,7.28
2019-06-20T09:47:23.306Z,8.10
2019-06-20T09:49:57.069Z,7.65
2019-06-20T09:52:26.950Z,7.80
2019-06-20T09:54:58.317Z,7.72
2019-06-20T09:57:29.540Z,7.95
2019-06-20T10:00:09.686Z,8.40
2019-06-20T10:02:33.286Z,9.10
2019-06-20T10:05:09.351Z,11.48
2019-06-20T10:07:40.356Z,8.65
2019-06-20T10:10:13.600Z,8.00
2019-06-20T10:12:45.205Z,10.45
2019-06-20T10:15:27.171Z,14.05
2019-06-20T10:17:58.397Z,9.78
2019-06-20T10:20:30.103Z,7.83
2019-06-20T10:23:01.121Z,9.68
2019-06-20T10:25:32.343Z,11.20
2019-06-20T10:28:03.912Z,11.00
2019-06-20T10:30:34.918Z,8.45
2019-06-20T10:33:06.189Z,8.75
2019-06-20T10:35:37.454Z,8.83
2019-06-20T10:38:08.333Z,8.80
2019-06-20T10:40:39.493Z,8.43
2019-06-20T10:43:10.382Z,7.20
2019-06-20T10:45:44.046Z,7.97
2019-06-20T10:48:14.750Z,7.85
2019-06-20T10:50:47.647Z,8.18
2019-06-20T10:53:19.205Z,8.33
2019-06-20T10:55:51.190Z,7.47
2019-06-20T10:58:22.147Z,8.63
2019-06-20T11:00:53.545Z,7.47
2019-06-20T11:03:24.329Z,8.08
2019-06-20T11:05:55.739Z,7.35
2019-06-20T11:08:26.685Z,5.80
2019-06-20T11:10:57.885Z,6.15
2019-06-20T11:13:28.793Z,7.05
2019-06-20T11:15:59.872Z,6.70
2019-06-20T11:18:31.259Z,6.80
2019-06-20T11:21:02.409Z,7.05
2019-06-20T11:23:34.789Z,6.90
2019-06-20T11:26:06.166Z,7.30
2019-06-20T11:28:38.210Z,7.87
2019-06-20T11:31:10.026Z,7.72
2019-06-20T11:33:42.103Z,8.10
2019-06-20T11:36:13.109Z,9.95
2019-06-20T11:38:44.565Z,14.28
2019-06-20T11:41:15.842Z,11.35
2019-06-20T11:43:46.999Z,9.53
2019-06-20T11:46:19.155Z,10.38
2019-06-20T11:48:50.112Z,10.08
2019-06-20T11:51:21.198Z,8.80
2019-06-20T11:53:52.470Z,9.95
2019-06-20T11:56:23.405Z,11.28
2019-06-20T11:58:54.402Z,12.50
2019-06-20T12:01:32.896Z,10.38
2019-06-20T12:03:58.125Z,10.68
2019-06-20T12:06:29.117Z,10.32
2019-06-20T12:09:00.181Z,10.95
2019-06-20T12:11:31.194Z,10.93
2019-06-20T12:14:02.178Z,10.10
2019-06-20T12:16:33.474Z,10.65
2019-06-20T12:19:04.415Z,11.20
2019-06-20T12:21:35.625Z,10.60
2019-06-20T12:24:08.755Z,10.43
2019-06-20T12:26:40.785Z,11.28
2019-06-20T12:29:12.007Z,10.85
2019-06-20T12:31:43.157Z,11.15
2019-06-20T12:34:14.263Z,11.00
2019-06-20T12:36:46.518Z,10.78
2019-06-20T12:39:17.719Z,10.85
2019-06-20T12:41:50.256Z,11.00
2019-06-20T12:44:21.479Z,11.60
2019-06-20T12:46:52.671Z,12.03
2019-06-20T12:49:24.087Z,12.20
2019-06-20T12:51:55.709Z,11.40
2019-06-20T12:54:29.410Z,12.15
2019-06-20T12:56:59.277Z,11.78
2019-06-20T12:59:30.285Z,11.28
2019-06-20T13:02:01.277Z,11.57
2019-06-20T13:04:32.407Z,11.15
2019-06-20T13:07:03.471Z,10.30
2019-06-20T13:09:34.491Z,10.03
2019-06-20T13:12:05.516Z,10.13
2019-06-20T13:14:36.473Z,10.82
2019-06-20T13:17:07.459Z,10.20
2019-06-20T13:19:39.168Z,8.85
2019-06-20T13:22:11.773Z,9.20
2019-06-20T13:24:42.923Z,9.20
2019-06-20T13:27:14.601Z,9.55
2019-06-20T13:29:45.497Z,8.83
2019-06-20T13:32:16.633Z,8.73
2019-06-20T13:34:48.936Z,9.55
2019-06-20T13:37:20.061Z,10.30
2019-06-20T13:39:51.021Z,9.88
2019-06-20T13:42:22.192Z,9.85
2019-06-20T13:44:53.433Z,8.63
2019-06-20T13:47:24.344Z,9.25
2019-06-20T13:49:55.209Z,9.10
2019-06-20T13:52:26.526Z,9.25
2019-06-20T13:54:57.558Z,9.25
2019-06-20T13:57:28.609Z,8.98
2019-06-20T13:59:59.477Z,8.33
2019-06-20T14:02:30.529Z,8.68
2019-06-20T14:05:01.401Z,7.97
2019-06-20T14:07:32.413Z,8.10
2019-06-20T14:10:04.949Z,8.70
2019-06-20T14:12:36.117Z,8.80
2019-06-20T14:15:10.282Z,8.23
2019-06-20T14:17:43.089Z,8.35
2019-06-20T14:20:15.952Z,8.20
2019-06-20T14:22:46.915Z,8.53
2019-06-20T14:25:19.802Z,8.08
2019-06-20T14:27:51.560Z,8.53
2019-06-20T14:30:24.683Z,8.60
2019-06-20T14:32:56.050Z,8.03
2019-06-20T14:35:27.326Z,8.65
2019-06-20T14:37:58.379Z,8.75
2019-06-20T14:40:29.496Z,8.33
2019-06-20T14:43:00.499Z,8.15
2019-06-20T14:45:31.537Z,8.95
2019-06-20T14:48:04.001Z,9.00
2019-06-20T14:50:35.221Z,9.03
2019-06-20T14:53:06.288Z,8.95
2019-06-20T14:55:37.385Z,9.33
2019-06-20T14:58:08.553Z,9.98
2019-06-20T15:00:39.701Z,11.50
2019-06-20T15:03:10.731Z,10.20
2019-06-20T15:05:41.808Z,9.83
2019-06-20T15:08:12.939Z,9.65
2019-06-20T15:10:46.522Z,9.33
2019-06-20T15:13:16.853Z,9.70
2019-06-20T15:15:49.429Z,10.32
2019-06-20T15:18:20.812Z,10.03
2019-06-20T15:20:52.821Z,10.63
2019-06-20T15:23:24.805Z,8.70
2019-06-20T15:25:56.420Z,9.53
2019-06-20T15:28:27.338Z,10.08
2019-06-20T15:30:58.384Z,9.23
2019-06-20T15:33:30.896Z,13.95
2019-06-20T15:36:02.370Z,9.30
2019-06-20T15:38:33.627Z,9.45
2019-06-20T15:41:04.850Z,9.40
2019-06-20T15:43:36.120Z,13.50
2019-06-20T15:46:07.315Z,15.35
2019-06-20T15:48:38.500Z,11.00
2019-06-20T15:51:10.261Z,12.15
2019-06-20T15:53:41.368Z,9.58
2019-06-20T15:56:12.251Z,13.03
2019-06-20T15:58:43.435Z,9.23
2019-06-20T16:01:14.447Z,8.95
2019-06-20T16:03:45.613Z,8.93
2019-06-20T16:06:16.588Z,8.73
2019-06-20T16:08:47.491Z,8.63
2019-06-20T16:11:18.456Z,8.55
2019-06-20T16:13:50.271Z,8.50
2019-06-20T16:16:21.399Z,8.98
2019-06-20T16:18:52.306Z,9.75
2019-06-20T16:21:23.202Z,9.13
2019-06-20T16:23:54.215Z,9.23
2019-06-20T16:26:25.256Z,8.63
2019-06-20T16:28:56.426Z,9.05
2019-06-20T16:31:27.434Z,7.90
2019-06-20T16:33:58.415Z,8.30
2019-06-20T16:36:29.522Z,8.35
2019-06-20T16:39:00.535Z,8.58
2019-06-20T16:41:31.784Z,8.18
2019-06-20T16:44:02.966Z,7.80
2019-06-20T16:46:33.775Z,8.20
2019-06-20T16:49:04.942Z,8.48
2019-06-20T16:51:36.019Z,8.55
2019-06-20T16:54:07.033Z,8.13
2019-06-20T16:56:38.198Z,8.60
2019-06-20T16:59:09.390Z,8.10
2019-06-20T17:01:40.557Z,8.43
2019-06-20T17:04:11.578Z,8.10
2019-06-20T17:06:42.621Z,8.85
2019-06-20T17:09:13.701Z,7.95
2019-06-20T17:11:45.709Z,8.00
2019-06-20T17:14:16.811Z,8.73
2019-06-20T17:16:47.824Z,10.15
2019-06-20T17:19:18.945Z,8.88
2019-06-20T17:21:50.025Z,8.60
2019-06-20T17:24:22.891Z,8.60
2019-06-20T17:26:54.209Z,8.70
2019-06-20T17:29:25.482Z,9.15
2019-06-20T17:31:57.598Z,8.68
2019-06-20T17:34:28.998Z,9.10
2019-06-20T17:36:59.941Z,8.68
2019-06-20T17:39:31.191Z,7.92
2019-06-20T17:42:02.386Z,7.97
2019-06-20T17:44:33.553Z,7.67
2019-06-20T17:47:05.082Z,8.90
2019-06-20T17:49:36.187Z,8.33
2019-06-20T17:52:07.400Z,8.43
2019-06-20T17:54:38.437Z,8.48
2019-06-20T17:57:09.423Z,8.30
2019-06-20T17:59:40.678Z,8.25
2019-06-20T18:02:11.709Z,8.45
2019-06-20T18:04:42.950Z,8.20
2019-06-20T18:07:14.246Z,8.58
2019-06-20T18:09:45.234Z,9.00
2019-06-20T18:12:16.520Z,8.38
2019-06-20T18:14:47.470Z,8.53
2019-06-20T18:17:18.675Z,8.63
2019-06-20T18:19:50.251Z,9.50
2019-06-20T18:22:21.480Z,9.25
2019-06-20T18:24:52.497Z,8.80
2019-06-20T18:27:23.879Z,9.08
2019-06-20T18:29:55.354Z,11.25
2019-06-20T18:32:26.521Z,10.93
2019-06-20T18:35:02.172Z,9.38
2019-06-20T18:37:31.952Z,8.83
2019-06-20T18:40:03.817Z,11.38
2019-06-20T18:42:35.416Z,12.07
2019-06-20T18:45:09.601Z,9.78
2019-06-20T18:47:41.255Z,9.25
2019-06-20T18:50:13.454Z,9.75
2019-06-20T18:52:52.291Z,9.23
2019-06-20T18:55:19.762Z,9.30
2019-06-20T18:57:52.715Z,8.65
2019-06-20T19:00:34.543Z,8.10
2019-06-20T19:02:59.161Z,7.28
2019-06-20T19:05:30.694Z,8.03
2019-06-20T19:08:02.309Z,6.33
2019-06-20T19:10:34.062Z,6.55
2019-06-20T19:13:05.552Z,7.80
2019-06-20T19:15:37.085Z,10.05
2019-06-20T19:18:08.523Z,9.15
2019-06-20T19:20:40.177Z,8.08
2019-06-20T19:23:11.400Z,12.88
2019-06-20T19:25:42.773Z,13.38
2019-06-20T19:28:14.018Z,10.40
2019-06-20T19:30:51.468Z,9.40
2019-06-20T19:33:23.119Z,10.32
2019-06-20T19:35:55.036Z,9.58
2019-06-20T19:38:26.475Z,10.30
2019-06-20T19:40:58.148Z,9.35
2019-06-20T19:43:29.446Z,9.53
2019-06-20T19:46:01.031Z,13.83
2019-06-20T19:48:32.584Z,13.68
2019-06-20T19:51:04.542Z,12.23
2019-06-20T19:53:36.769Z,10.68
2019-06-20T19:56:08.907Z,10.55
2019-06-20T19:58:40.535Z,10.25
2019-06-20T20:01:12.527Z,10.20
2019-06-20T20:03:45.592Z,9.58
2019-06-20T20:06:17.277Z,10.35
2019-06-20T20:08:48.866Z,8.43
2019-06-20T20:11:22.244Z,9.00
2019-06-20T20:13:54.483Z,9.43
2019-06-20T20:16:26.464Z,9.18
2019-06-20T20:18:57.994Z,9.35
2019-06-20T20:21:29.780Z,8.73
2019-06-20T20:24:01.326Z,10.80
2019-06-20T20:26:33.317Z,11.12
2019-06-20T20:29:05.011Z,11.75
2019-06-20T20:31:38.120Z,12.33
2019-06-20T20:34:11.835Z,10.95
2019-06-20T20:36:43.467Z,10.00
2019-06-20T20:39:16.950Z,10.43
2019-06-20T20:41:48.515Z,12.55
2019-06-20T20:44:19.698Z,9.90
2019-06-20T20:46:50.709Z,9.95
2019-06-20T20:49:21.819Z,9.60
2019-06-20T20:51:52.979Z,10.10
2019-06-20T20:54:24.231Z,9.55
2019-06-20T20:56:55.930Z,8.45
2019-06-20T20:59:27.140Z,9.23
2019-06-20T21:01:58.751Z,11.05
2019-06-20T21:04:29.907Z,9.43
2019-06-20T21:07:01.096Z,9.33
2019-06-20T21:09:32.252Z,10.25
2019-06-20T21:12:03.447Z,10.32
2019-06-20T21:14:34.450Z,9.45
2019-06-20T21:17:05.796Z,9.50
2019-06-20T21:19:36.754Z,9.98
2019-06-20T21:22:07.959Z,11.05
2019-06-20T21:24:39.016Z,11.78
2019-06-20T21:27:09.886Z,10.95
2019-06-20T21:29:40.984Z,10.90
2019-06-20T21:32:12.061Z,11.57
2019-06-20T21:34:43.094Z,11.15
2019-06-20T21:37:14.648Z,10.75
2019-06-20T21:39:45.758Z,9.88
2019-06-20T21:42:17.154Z,10.40
2019-06-20T21:44:48.145Z,9.60
2019-06-20T21:47:19.387Z,9.80
2019-06-20T21:49:50.268Z,9.80
2019-06-20T21:52:21.559Z,9.10
2019-06-20T21:54:52.410Z,8.83
2019-06-20T21:57:23.543Z,8.75
2019-06-20T21:59:54.752Z,8.33
2019-06-20T22:02:25.812Z,9.28
2019-06-20T22:04:57.097Z,9.38
2019-06-20T22:07:28.126Z,9.98
2019-06-20T22:09:59.094Z,9.00
2019-06-20T22:12:30.204Z,8.03
2019-06-20T22:15:01.197Z,7.70
2019-06-20T22:17:32.774Z,9.00
2019-06-20T22:20:05.110Z,8.83
2019-06-20T22:22:36.440Z,8.38
2019-06-20T22:25:08.947Z,8.23
2019-06-20T22:27:40.060Z,8.53
2019-06-20T22:30:14.662Z,8.65
2019-06-20T22:32:45.782Z,7.53
2019-06-20T22:35:17.043Z,6.53
2019-06-20T22:37:47.987Z,6.42
2019-06-20T22:40:19.153Z,6.25
2019-06-20T22:42:50.176Z,6.33
2019-06-20T22:45:21.425Z,5.87
2019-06-20T22:47:52.893Z,5.92
2019-06-20T22:50:24.146Z,5.08
2019-06-20T22:52:55.213Z,5.42
2019-06-20T22:55:26.273Z,4.15
2019-06-20T22:57:57.487Z,5.90
2019-06-20T23:00:28.666Z,8.15
2019-06-20T23:02:59.761Z,7.78
2019-06-20T23:05:30.864Z,5.92
2019-06-20T23:08:02.089Z,5.72
2019-06-20T23:10:33.136Z,5.10
2019-06-20T23:13:04.822Z,5.33
2019-06-20T23:15:35.880Z,5.30
2019-06-20T23:18:07.054Z,6.47
2019-06-20T23:20:38.043Z,5.40
2019-06-20T23:23:11.048Z,6.47
2019-06-20T23:25:43.790Z,6.87
2019-06-20T23:28:14.891Z,7.53
2019-06-20T23:30:45.982Z,7.67
2019-06-20T23:33:16.953Z,7.40
2019-06-20T23:35:48.042Z,7.60
2019-06-20T23:38:19.032Z,8.65
2019-06-20T23:40:50.015Z,8.13
2019-06-20T23:43:21.216Z,7.45
2019-06-20T23:45:52.582Z,7.87
2019-06-20T23:48:23.636Z,8.63
2019-06-20T23:50:54.649Z,7.75
2019-06-20T23:53:27.607Z,8.03
2019-06-20T23:55:58.555Z,7.20
2019-06-20T23:58:29.526Z,7.83
